Time;durP1;ratioP1;P1;durP2;ratioP2;P2;SDS_P1;SDS_P2;PMS_P1;PMS_P2;Temp;Humidity;BMP_temperature;BMP_pressure;BME280_temperature;BME280_humidity;BME280_pressure;Samples;Min_cycle;Max_cycle;Signal;HPM_P1;HPM_P2
2022/08/09 00:02:25;;;;;;;10.52;3.60;;;;;;;;;;4974718;28;20027;-74
2022/08/09 00:04:50;;;;;;;5.18;3.30;;;;;;;;;;4961650;28;20035;-74
2022/08/09 00:07:17;;;;;;;4.88;2.83;;;;;;;;;;4965880;28;20033;-74
2022/08/09 00:09:42;;;;;;;5.40;4.18;;;;;;;;;;4960355;28;20106;-73
2022/08/09 00:12:09;;;;;;;8.05;3.03;;;;;;;;;;4965221;28;20467;-74
2022/08/09 00:14:35;;;;;;;7.38;3.28;;;;;;;;;;4958780;28;20053;-74
2022/08/09 00:17:00;;;;;;;5.43;3.08;;;;;;;;;;4966265;28;20035;-74
2022/08/09 00:19:26;;;;;;;7.63;3.35;;;;;;;;;;4987574;28;20037;-74
2022/08/09 00:21:52;;;;;;;6.85;3.15;;;;;;;;;;4966658;28;20042;-74
2022/08/09 00:24:18;;;;;;;7.40;3.70;;;;;;;;;;4975672;28;20550;-74
2022/08/09 00:26:45;;;;;;;6.07;3.08;;;;;;;;;;4954834;28;20034;-74
2022/08/09 00:29:11;;;;;;;4.50;3.22;;;;;;;;;;4975091;28;20031;-74
2022/08/09 00:31:36;;;;;;;8.07;3.22;;;;;;;;;;4959730;28;20041;-74
2022/08/09 00:34:02;;;;;;;4.60;3.47;;;;;;;;;;4971001;28;20045;-74
2022/08/09 00:36:27;;;;;;;5.35;3.20;;;;;;;;;;4965816;28;20244;-73
2022/08/09 00:38:53;;;;;;;6.88;3.38;;;;;;;;;;4967693;28;20039;-73
2022/08/09 00:41:21;;;;;;;7.95;3.72;;;;;;;;;;4971149;28;20031;-73
2022/08/09 00:43:48;;;;;;;8.55;3.42;;;;;;;;;;4980336;28;20112;-74
2022/08/09 00:46:14;;;;;;;4.85;3.55;;;;;;;;;;4968369;28;20035;-73
2022/08/09 00:48:40;;;;;;;7.70;3.53;;;;;;;;;;4965189;28;20034;-74
2022/08/09 00:51:06;;;;;;;6.72;3.42;;;;;;;;;;4959711;28;20202;-73
2022/08/09 00:53:37;;;;;;;6.97;3.30;;;;;;;;;;4961460;28;20559;-74
2022/08/09 00:56:04;;;;;;;6.80;3.33;;;;;;;;;;4968379;28;20034;-73
2022/08/09 00:58:30;;;;;;;8.95;3.92;;;;;;;;;;4976684;28;20069;-74
2022/08/09 01:00:56;;;;;;;7.53;3.78;;;;;;;;;;4974189;28;20031;-73
2022/08/09 01:03:59;;;;;;;7.63;3.15;;;;;;;;;;4959319;28;20030;-74
2022/08/09 01:07:02;;;;;;;4.82;3.50;;;;;;;;;;4962908;28;20062;-74
2022/08/09 01:10:22;;;;;;;6.03;3.28;;;;;;;;;;4962676;28;20066;-74
2022/08/09 01:13:02;;;;;;;5.10;3.30;;;;;;;;;;4947741;29;20357;-74
2022/08/09 01:15:33;;;;;;;4.38;3.65;;;;;;;;;;4958727;28;20106;-74
2022/08/09 01:18:09;;;;;;;4.07;2.97;;;;;;;;;;4952353;28;20050;-74
2022/08/09 01:20:52;;;;;;;5.88;3.67;;;;;;;;;;4960296;28;20039;-74
2022/08/09 01:23:24;;;;;;;6.88;3.58;;;;;;;;;;4962959;28;20069;-74
2022/08/09 01:26:14;;;;;;;4.55;3.03;;;;;;;;;;4963294;28;20065;-74
2022/08/09 01:28:44;;;;;;;6.93;3.72;;;;;;;;;;4959355;28;20031;-74
2022/08/09 01:31:15;;;;;;;4.88;3.33;;;;;;;;;;4961733;28;20054;-74
2022/08/09 01:33:44;;;;;;;10.27;4.43;;;;;;;;;;4952778;28;20031;-74
2022/08/09 01:36:16;;;;;;;6.30;3.25;;;;;;;;;;4961107;28;20038;-74
2022/08/09 01:38:44;;;;;;;7.10;3.45;;;;;;;;;;4959297;28;20035;-73
2022/08/09 01:41:28;;;;;;;6.72;4.15;;;;;;;;;;4961463;28;20078;-74
2022/08/09 01:43:56;;;;;;;7.80;3.67;;;;;;;;;;4964049;28;20387;-74
2022/08/09 01:46:24;;;;;;;5.03;3.55;;;;;;;;;;4953659;28;20105;-75
2022/08/09 01:48:51;;;;;;;5.43;3.85;;;;;;;;;;4970795;28;20586;-74
2022/08/09 01:51:19;;;;;;;5.80;3.70;;;;;;;;;;4958506;28;20103;-74
2022/08/09 01:53:46;;;;;;;4.20;3.80;;;;;;;;;;4959534;28;20098;-74
2022/08/09 01:56:13;;;;;;;6.68;2.95;;;;;;;;;;4972845;28;20037;-74
2022/08/09 01:58:40;;;;;;;4.40;3.28;;;;;;;;;;4951438;28;20031;-74
2022/08/09 02:01:08;;;;;;;4.50;3.38;;;;;;;;;;4951812;28;20105;-73
2022/08/09 02:03:35;;;;;;;6.57;3.45;;;;;;;;;;4969526;28;20026;-74
2022/08/09 02:06:02;;;;;;;5.07;3.30;;;;;;;;;;4956256;28;20121;-74
2022/08/09 02:08:29;;;;;;;4.57;3.20;;;;;;;;;;4975570;28;20030;-74
2022/08/09 02:10:57;;;;;;;4.00;3.22;;;;;;;;;;4978574;28;20046;-73
2022/08/09 02:13:24;;;;;;;7.60;3.53;;;;;;;;;;4967418;28;20027;-73
2022/08/09 02:15:54;;;;;;;4.43;3.40;;;;;;;;;;4963796;28;20058;-72
2022/08/09 02:18:26;;;;;;;6.28;3.85;;;;;;;;;;4963240;28;20029;-74
2022/08/09 02:20:56;;;;;;;6.03;3.55;;;;;;;;;;4956373;28;20034;-72
2022/08/09 02:23:26;;;;;;;4.28;3.45;;;;;;;;;;4965117;28;20026;-73
2022/08/09 02:25:54;;;;;;;6.30;3.22;;;;;;;;;;4961971;28;20089;-72
2022/08/09 02:28:28;;;;;;;8.35;3.67;;;;;;;;;;4959669;28;20027;-73
2022/08/09 02:31:00;;;;;;;4.10;3.28;;;;;;;;;;4960137;28;20026;-73
2022/08/09 02:33:29;;;;;;;4.97;3.65;;;;;;;;;;4974019;28;20027;-73
2022/08/09 02:35:58;;;;;;;5.05;3.20;;;;;;;;;;4960739;28;20644;-73
2022/08/09 02:38:33;;;;;;;4.63;3.83;;;;;;;;;;4981615;28;20030;-74
2022/08/09 02:41:05;;;;;;;8.10;5.25;;;;;;;;;;4956886;28;20514;-73
2022/08/09 02:43:33;;;;;;;7.53;3.28;;;;;;;;;;4976511;28;20066;-73
2022/08/09 02:46:00;;;;;;;4.50;3.17;;;;;;;;;;4961912;28;20097;-74
2022/08/09 02:48:29;;;;;;;5.47;3.47;;;;;;;;;;4956593;28;20055;-74
2022/08/09 02:50:58;;;;;;;6.85;3.97;;;;;;;;;;4951135;28;20488;-74
2022/08/09 02:53:37;;;;;;;6.00;3.72;;;;;;;;;;4975056;28;20031;-75
2022/08/09 02:56:03;;;;;;;6.28;3.30;;;;;;;;;;4965869;28;20027;-74
2022/08/09 02:58:31;;;;;;;6.10;3.75;;;;;;;;;;4955788;28;20038;-74
2022/08/09 03:00:58;;;;;;;4.85;3.13;;;;;;;;;;4967254;28;20465;-74
2022/08/09 03:03:25;;;;;;;7.50;3.58;;;;;;;;;;4960072;28;20081;-74
2022/08/09 03:05:52;;;;;;;7.85;4.22;;;;;;;;;;4979699;28;20031;-73
2022/08/09 03:08:19;;;;;;;7.53;4.10;;;;;;;;;;4955100;28;20035;-74
2022/08/09 03:10:45;;;;;;;11.88;3.78;;;;;;;;;;4965840;28;20061;-74
2022/08/09 03:13:13;;;;;;;5.05;3.92;;;;;;;;;;4962180;28;20035;-74
2022/08/09 03:15:40;;;;;;;6.32;3.17;;;;;;;;;;4966819;28;20054;-74
2022/08/09 03:18:06;;;;;;;6.03;3.20;;;;;;;;;;4965341;28;20061;-74
2022/08/09 03:20:32;;;;;;;3.78;3.40;;;;;;;;;;4960946;28;20034;-73
2022/08/09 03:22:58;;;;;;;6.60;3.95;;;;;;;;;;4959704;28;20031;-74
2022/08/09 03:25:27;;;;;;;5.80;3.45;;;;;;;;;;4959145;28;20058;-74
2022/08/09 03:27:55;;;;;;;6.93;4.03;;;;;;;;;;4967213;28;20015;-73
2022/08/09 03:30:20;;;;;;;4.53;3.30;;;;;;;;;;4959206;28;20439;-73
2022/08/09 03:32:47;;;;;;;4.60;3.78;;;;;;;;;;4966188;28;20043;-73
2022/08/09 03:35:13;;;;;;;7.18;3.40;;;;;;;;;;4965046;28;20023;-73
2022/08/09 03:37:39;;;;;;;3.67;3.20;;;;;;;;;;4960215;28;20031;-73
2022/08/09 03:40:06;;;;;;;7.38;3.85;;;;;;;;;;4959827;28;20027;-73
2022/08/09 03:42:31;;;;;;;10.05;4.72;;;;;;;;;;4961451;28;20424;-74
2022/08/09 03:44:57;;;;;;;8.13;3.70;;;;;;;;;;4956861;28;20041;-73
2022/08/09 03:47:22;;;;;;;7.38;3.63;;;;;;;;;;4959047;28;20518;-73
2022/08/09 03:49:49;;;;;;;11.63;5.15;;;;;;;;;;4960261;28;20504;-73
2022/08/09 03:52:17;;;;;;;5.13;3.67;;;;;;;;;;4959765;28;20051;-73
2022/08/09 03:54:44;;;;;;;7.25;3.58;;;;;;;;;;4965251;28;20034;-73
2022/08/09 03:57:11;;;;;;;6.93;4.45;;;;;;;;;;4962723;28;20038;-73
2022/08/09 03:59:37;;;;;;;14.23;4.70;;;;;;;;;;4958852;28;20035;-74
2022/08/09 04:02:04;;;;;;;8.65;4.20;;;;;;;;;;4963127;28;20034;-73
2022/08/09 04:04:31;;;;;;;6.78;3.88;;;;;;;;;;4969038;28;20058;-72
2022/08/09 04:06:57;;;;;;;5.53;4.25;;;;;;;;;;4962264;28;20043;-72
2022/08/09 04:09:26;;;;;;;5.95;3.88;;;;;;;;;;4966554;28;20030;-74
2022/08/09 04:12:08;;;;;;;12.85;5.25;;;;;;;;;;4979007;28;20023;-74
2022/08/09 04:14:35;;;;;;;6.30;3.90;;;;;;;;;;4959716;28;20043;-74
2022/08/09 04:17:00;;;;;;;7.50;4.32;;;;;;;;;;4981164;28;20045;-73
2022/08/09 04:19:26;;;;;;;6.63;3.92;;;;;;;;;;4971411;28;20022;-74
2022/08/09 04:21:52;;;;;;;8.63;4.80;;;;;;;;;;4968259;28;20035;-72
2022/08/09 04:24:17;;;;;;;11.35;4.55;;;;;;;;;;4971613;28;20027;-75
2022/08/09 04:26:43;;;;;;;12.27;4.50;;;;;;;;;;4980825;28;20529;-74
2022/08/09 04:29:08;;;;;;;4.43;4.03;;;;;;;;;;4980923;28;20045;-74
2022/08/09 04:31:34;;;;;;;9.80;4.68;;;;;;;;;;4971429;28;20114;-73
2022/08/09 04:34:00;;;;;;;8.88;4.45;;;;;;;;;;4967773;28;20035;-73
2022/08/09 04:36:27;;;;;;;6.50;3.78;;;;;;;;;;4971303;28;20052;-74
2022/08/09 04:38:56;;;;;;;7.00;4.00;;;;;;;;;;4984342;28;20062;-73
2022/08/09 04:41:22;;;;;;;6.15;4.22;;;;;;;;;;4980356;28;20030;-74
2022/08/09 04:43:48;;;;;;;7.38;4.47;;;;;;;;;;4955155;28;20035;-74
2022/08/09 04:46:13;;;;;;;7.22;4.38;;;;;;;;;;4980657;28;20037;-74
2022/08/09 04:48:39;;;;;;;7.35;4.50;;;;;;;;;;4967426;28;20119;-74
2022/08/09 04:51:05;;;;;;;14.25;4.47;;;;;;;;;;4979628;28;20035;-74
2022/08/09 04:53:30;;;;;;;9.57;5.13;;;;;;;;;;4958308;28;20027;-72
2022/08/09 04:55:56;;;;;;;7.53;4.50;;;;;;;;;;4958088;28;20031;-73
2022/08/09 04:58:21;;;;;;;6.03;3.92;;;;;;;;;;4958033;28;20573;-73
2022/08/09 05:00:47;;;;;;;8.65;4.78;;;;;;;;;;4964915;28;20104;-73
2022/08/09 05:03:12;;;;;;;7.68;4.95;;;;;;;;;;4964226;28;20030;-73
2022/08/09 05:05:38;;;;;;;8.70;4.80;;;;;;;;;;4960150;28;20038;-73
2022/08/09 05:08:04;;;;;;;12.02;4.82;;;;;;;;;;4969036;28;20023;-73
2022/08/09 05:10:29;;;;;;;5.05;4.40;;;;;;;;;;4965209;28;20539;-74
2022/08/09 05:12:55;;;;;;;6.65;4.38;;;;;;;;;;4980708;28;20131;-74
2022/08/09 05:15:20;;;;;;;11.98;6.22;;;;;;;;;;4963421;28;20062;-73
2022/08/09 05:17:46;;;;;;;8.20;4.40;;;;;;;;;;4970122;28;20502;-73
2022/08/09 05:20:11;;;;;;;5.35;4.50;;;;;;;;;;4970385;28;20037;-73
2022/08/09 05:22:37;;;;;;;13.30;5.55;;;;;;;;;;4965126;28;20026;-73
2022/08/09 05:25:03;;;;;;;12.88;5.75;;;;;;;;;;4964392;28;20101;-74
2022/08/09 05:27:29;;;;;;;8.73;4.53;;;;;;;;;;4958432;28;20029;-72
2022/08/09 05:29:54;;;;;;;12.90;5.45;;;;;;;;;;4960906;28;20035;-74
2022/08/09 05:32:20;;;;;;;8.90;4.85;;;;;;;;;;4962989;28;20022;-73
2022/08/09 05:34:46;;;;;;;7.75;5.20;;;;;;;;;;4963682;28;20078;-73
2022/08/09 05:37:11;;;;;;;6.78;4.38;;;;;;;;;;4952189;28;20019;-75
2022/08/09 05:39:39;;;;;;;6.50;4.10;;;;;;;;;;4968486;28;20034;-75
2022/08/09 05:42:05;;;;;;;7.25;4.50;;;;;;;;;;4957804;28;20041;-74
2022/08/09 05:44:33;;;;;;;6.60;4.72;;;;;;;;;;4973024;28;20399;-74
2022/08/09 05:46:59;;;;;;;6.53;4.95;;;;;;;;;;4981165;28;20038;-74
2022/08/09 05:49:25;;;;;;;13.82;4.60;;;;;;;;;;4954853;28;20456;-73
2022/08/09 05:51:50;;;;;;;7.35;4.05;;;;;;;;;;4964602;28;20745;-73
2022/08/09 05:54:16;;;;;;;5.03;4.45;;;;;;;;;;4966554;28;20442;-74
2022/08/09 05:56:41;;;;;;;9.85;4.85;;;;;;;;;;4965970;28;20498;-74
2022/08/09 05:59:07;;;;;;;15.75;4.78;;;;;;;;;;4977801;28;20122;-74
2022/08/09 06:01:32;;;;;;;8.63;5.30;;;;;;;;;;4967065;28;20031;-73
2022/08/09 06:03:59;;;;;;;8.63;5.45;;;;;;;;;;4962602;28;20031;-75
2022/08/09 06:06:25;;;;;;;11.88;5.22;;;;;;;;;;4966568;28;20050;-73
2022/08/09 06:08:51;;;;;;;10.25;5.85;;;;;;;;;;4957343;28;20491;-76
2022/08/09 06:11:16;;;;;;;5.03;4.15;;;;;;;;;;4951505;28;21189;-76
2022/08/09 06:13:42;;;;;;;8.50;4.40;;;;;;;;;;4978912;28;20035;-76
2022/08/09 06:16:09;;;;;;;5.45;4.10;;;;;;;;;;4955364;28;20433;-74
2022/08/09 06:18:35;;;;;;;6.97;5.43;;;;;;;;;;4947138;28;20118;-74
2022/08/09 06:21:03;;;;;;;14.00;4.68;;;;;;;;;;4960588;28;20030;-74
2022/08/09 06:23:30;;;;;;;7.63;4.53;;;;;;;;;;4955565;28;20629;-74
2022/08/09 06:25:56;;;;;;;8.82;4.30;;;;;;;;;;4956953;28;20082;-74
2022/08/09 06:28:21;;;;;;;6.43;4.93;;;;;;;;;;4952928;28;20042;-75
2022/08/09 06:30:47;;;;;;;13.30;4.38;;;;;;;;;;4961982;28;20418;-75
2022/08/09 06:33:12;;;;;;;12.82;5.10;;;;;;;;;;4962461;28;20458;-74
2022/08/09 06:35:41;;;;;;;9.45;4.28;;;;;;;;;;4968998;28;20034;-76
2022/08/09 06:38:06;;;;;;;8.52;4.47;;;;;;;;;;4964449;28;20074;-76
2022/08/09 06:40:32;;;;;;;11.05;5.00;;;;;;;;;;4956461;28;20035;-76
2022/08/09 06:42:59;;;;;;;9.38;4.90;;;;;;;;;;4961725;28;20085;-74
2022/08/09 06:45:27;;;;;;;8.27;4.85;;;;;;;;;;4970766;28;20112;-75
2022/08/09 06:47:53;;;;;;;13.20;5.15;;;;;;;;;;4965510;28;20463;-74
2022/08/09 06:50:19;;;;;;;12.00;4.75;;;;;;;;;;4960234;28;20042;-75
2022/08/09 06:52:45;;;;;;;16.33;4.93;;;;;;;;;;4969595;28;20085;-74
2022/08/09 06:55:12;;;;;;;6.85;4.38;;;;;;;;;;4952935;28;20027;-75
2022/08/09 06:57:38;;;;;;;9.30;4.40;;;;;;;;;;4955709;28;20395;-76
2022/08/09 07:00:05;;;;;;;8.23;4.07;;;;;;;;;;4970518;28;20035;-74
2022/08/09 07:02:32;;;;;;;6.75;4.40;;;;;;;;;;4962310;28;20038;-74
2022/08/09 07:04:58;;;;;;;7.03;4.50;;;;;;;;;;4959938;28;20031;-76
2022/08/09 07:07:23;;;;;;;9.90;4.22;;;;;;;;;;4966543;28;20219;-74
2022/08/09 07:09:49;;;;;;;11.10;4.43;;;;;;;;;;4981878;28;20035;-74
2022/08/09 07:12:15;;;;;;;15.70;4.88;;;;;;;;;;4970364;28;20023;-75
2022/08/09 07:14:40;;;;;;;11.45;4.63;;;;;;;;;;4958484;28;20309;-74
2022/08/09 07:17:06;;;;;;;7.47;4.05;;;;;;;;;;4975472;28;20118;-77
2022/08/09 07:19:32;;;;;;;17.70;7.10;;;;;;;;;;4955635;28;20446;-75
2022/08/09 07:21:57;;;;;;;13.93;4.80;;;;;;;;;;4970511;28;20031;-76
2022/08/09 07:24:31;;;;;;;9.20;3.42;;;;;;;;;;4972265;28;20423;-76
2022/08/09 07:26:58;;;;;;;7.47;3.22;;;;;;;;;;4960167;28;20254;-74
2022/08/09 07:29:23;;;;;;;9.93;3.13;;;;;;;;;;4950907;28;20140;-76
2022/08/09 07:31:49;;;;;;;6.40;2.92;;;;;;;;;;4960990;28;20039;-76
2022/08/09 07:34:15;;;;;;;18.60;5.45;;;;;;;;;;4974923;28;20075;-76
2022/08/09 07:36:40;;;;;;;16.92;5.40;;;;;;;;;;4971924;28;20031;-77
2022/08/09 07:39:06;;;;;;;9.95;3.70;;;;;;;;;;4967899;28;20510;-77
2022/08/09 07:41:36;;;;;;;13.77;3.47;;;;;;;;;;4961412;28;20062;-75
2022/08/09 07:44:02;;;;;;;10.65;3.08;;;;;;;;;;4963237;28;20120;-76
2022/08/09 07:46:28;;;;;;;12.07;3.50;;;;;;;;;;4960553;28;20475;-74
2022/08/09 07:48:54;;;;;;;7.80;3.90;;;;;;;;;;4966896;28;20503;-74
2022/08/09 07:51:19;;;;;;;7.30;3.17;;;;;;;;;;4969404;28;20023;-75
2022/08/09 07:53:46;;;;;;;6.45;3.72;;;;;;;;;;4966231;28;20101;-77
2022/08/09 07:56:11;;;;;;;4.70;3.20;;;;;;;;;;4977541;28;20027;-75
2022/08/09 07:58:37;;;;;;;6.10;3.05;;;;;;;;;;4979687;28;20581;-75
2022/08/09 08:01:02;;;;;;;9.82;3.67;;;;;;;;;;4985539;28;20037;-76
2022/08/09 08:03:28;;;;;;;8.73;3.50;;;;;;;;;;4982695;28;20182;-74
2022/08/09 08:05:53;;;;;;;6.15;3.33;;;;;;;;;;4960289;28;20038;-77
2022/08/09 08:08:20;;;;;;;7.75;3.97;;;;;;;;;;4961548;28;20045;-76
2022/08/09 08:10:46;;;;;;;7.78;2.95;;;;;;;;;;4971828;28;20145;-74
2022/08/09 08:13:11;;;;;;;11.73;3.55;;;;;;;;;;4973126;28;20029;-75
2022/08/09 08:15:37;;;;;;;8.10;3.25;;;;;;;;;;4960999;28;20050;-74
2022/08/09 08:18:04;;;;;;;7.25;4.45;;;;;;;;;;4961876;28;20042;-74
2022/08/09 08:20:29;;;;;;;6.57;2.83;;;;;;;;;;4959091;28;20093;-76
2022/08/09 08:22:56;;;;;;;7.50;3.58;;;;;;;;;;4972830;28;20043;-75
2022/08/09 08:25:21;;;;;;;14.13;2.88;;;;;;;;;;4960704;28;20027;-75
2022/08/09 08:27:47;;;;;;;9.75;3.60;;;;;;;;;;4957752;28;20074;-75
2022/08/09 08:30:13;;;;;;;8.70;3.47;;;;;;;;;;4963108;28;20027;-75
2022/08/09 08:32:39;;;;;;;5.80;3.20;;;;;;;;;;4955104;28;20031;-74
2022/08/09 08:35:05;;;;;;;6.57;2.88;;;;;;;;;;4965295;28;20039;-74
2022/08/09 08:37:32;;;;;;;7.93;3.30;;;;;;;;;;4966156;28;20101;-73
2022/08/09 08:39:58;;;;;;;6.82;3.30;;;;;;;;;;4956783;28;20557;-74
2022/08/09 08:42:24;;;;;;;7.22;2.88;;;;;;;;;;4966143;28;20027;-75
2022/08/09 08:44:56;;;;;;;4.25;2.53;;;;;;;;;;4951445;28;20365;-74
2022/08/09 08:47:23;;;;;;;21.55;3.58;;;;;;;;;;4955092;28;20388;-73
2022/08/09 08:49:49;;;;;;;5.47;3.17;;;;;;;;;;4963113;28;20047;-74
2022/08/09 08:52:19;;;;;;;6.10;2.60;;;;;;;;;;4956053;28;20022;-75
2022/08/09 08:54:45;;;;;;;11.70;3.13;;;;;;;;;;4955406;28;20093;-75
2022/08/09 08:57:10;;;;;;;3.05;2.50;;;;;;;;;;4967161;28;20062;-76
2022/08/09 08:59:36;;;;;;;2.97;1.88;;;;;;;;;;4959374;28;20419;-75
2022/08/09 09:02:03;;;;;;;15.60;3.42;;;;;;;;;;4964094;28;20146;-77
2022/08/09 09:04:32;;;;;;;5.57;2.67;;;;;;;;;;4960261;28;20065;-75
2022/08/09 09:07:01;;;;;;;6.32;2.83;;;;;;;;;;4952042;28;20039;-74
2022/08/09 09:09:28;;;;;;;4.97;2.33;;;;;;;;;;4964426;28;20033;-74
2022/08/09 09:12:08;;;;;;;3.55;2.30;;;;;;;;;;4960597;28;20023;-75
2022/08/09 09:14:34;;;;;;;5.47;2.50;;;;;;;;;;4945446;28;20193;-75
2022/08/09 09:17:01;;;;;;;3.78;2.00;;;;;;;;;;4956942;28;20109;-74
2022/08/09 09:19:28;;;;;;;3.13;2.25;;;;;;;;;;4962240;28;21760;-73
2022/08/09 09:22:15;;;;;;;4.28;2.17;;;;;;;;;;4958857;28;20029;-75
2022/08/09 09:24:47;;;;;;;5.32;2.47;;;;;;;;;;4951955;28;20121;-74
2022/08/09 09:27:17;;;;;;;5.50;2.10;;;;;;;;;;4949601;28;20472;-75
2022/08/09 09:29:44;;;;;;;3.83;2.50;;;;;;;;;;4951403;28;20491;-76
2022/08/09 09:32:10;;;;;;;11.68;1.83;;;;;;;;;;4956914;28;20206;-73
2022/08/09 09:34:37;;;;;;;5.63;1.77;;;;;;;;;;4965801;28;20113;-73
2022/08/09 09:37:05;;;;;;;11.45;3.30;;;;;;;;;;4965385;28;20047;-73
2022/08/09 09:39:31;;;;;;;6.90;2.13;;;;;;;;;;4961024;28;20038;-74
2022/08/09 09:41:58;;;;;;;5.15;1.90;;;;;;;;;;4969269;28;20086;-77
2022/08/09 09:44:32;;;;;;;9.05;1.98;;;;;;;;;;4950312;28;20038;-74
2022/08/09 09:47:15;;;;;;;12.00;3.60;;;;;;;;;;4952692;28;20050;-74
2022/08/09 09:49:49;;;;;;;5.03;2.47;;;;;;;;;;4964399;28;20038;-74
2022/08/09 09:52:16;;;;;;;7.72;1.95;;;;;;;;;;4966334;28;20487;-74
2022/08/09 09:54:45;;;;;;;7.63;1.55;;;;;;;;;;4968075;28;20034;-75
2022/08/09 09:57:19;;;;;;;3.15;1.67;;;;;;;;;;4973188;28;20066;-76
2022/08/09 09:59:50;;;;;;;3.08;1.60;;;;;;;;;;4978573;28;20069;-78
2022/08/09 10:02:18;;;;;;;4.28;1.65;;;;;;;;;;4959147;28;20045;-75
2022/08/09 10:04:44;;;;;;;2.65;1.77;;;;;;;;;;4964853;28;20099;-75
2022/08/09 10:07:22;;;;;;;3.28;2.00;;;;;;;;;;4957873;28;20038;-76
2022/08/09 10:09:54;;;;;;;8.13;2.10;;;;;;;;;;4949728;28;20047;-76
2022/08/09 10:12:31;;;;;;;4.28;1.65;;;;;;;;;;4959111;28;20632;-75
2022/08/09 10:15:15;;;;;;;3.25;1.70;;;;;;;;;;4840095;28;3629399;-75
2022/08/09 10:17:43;;;;;;;2.90;1.25;;;;;;;;;;4949666;28;20050;-76
2022/08/09 10:20:21;;;;;;;3.15;1.30;;;;;;;;;;4954713;28;20054;-75
2022/08/09 10:22:52;;;;;;;3.33;1.92;;;;;;;;;;4973780;28;20051;-75
2022/08/09 10:25:22;;;;;;;5.80;1.98;;;;;;;;;;4965693;28;20329;-75
2022/08/09 10:27:48;;;;;;;6.78;2.05;;;;;;;;;;4960340;28;20305;-75
2022/08/09 10:30:15;;;;;;;7.13;2.00;;;;;;;;;;4952733;28;20058;-75
2022/08/09 10:32:40;;;;;;;3.15;1.63;;;;;;;;;;4957203;28;20045;-74
2022/08/09 10:35:07;;;;;;;4.80;1.73;;;;;;;;;;4949623;28;20038;-73
2022/08/09 10:37:34;;;;;;;3.63;1.67;;;;;;;;;;4961467;28;20030;-74
2022/08/09 10:40:01;;;;;;;4.68;1.65;;;;;;;;;;4943450;28;20034;-75
2022/08/09 10:42:26;;;;;;;2.40;1.30;;;;;;;;;;4946217;28;20146;-74
2022/08/09 10:44:57;;;;;;;2.50;1.67;;;;;;;;;;4948110;28;20042;-75
2022/08/09 10:47:37;;;;;;;3.17;1.42;;;;;;;;;;4957522;28;20051;-73
2022/08/09 10:53:52;;;;;;;2.97;1.48;;;;;;;;;;4952375;28;20122;-74
2022/08/09 10:56:47;;;;;;;1.85;1.52;;;;;;;;;;4971024;28;20043;-74
2022/08/09 10:59:31;;;;;;;8.52;2.33;;;;;;;;;;4966705;28;20035;-76
2022/08/09 11:01:56;;;;;;;3.58;2.13;;;;;;;;;;4951152;28;20196;-77
2022/08/09 11:04:24;;;;;;;3.80;1.70;;;;;;;;;;4958671;28;20425;-75
2022/08/09 11:07:05;;;;;;;3.35;1.33;;;;;;;;;;4955717;28;20154;-76
2022/08/09 11:09:42;;;;;;;3.55;2.20;;;;;;;;;;4965034;28;20034;-75
2022/08/09 11:12:17;;;;;;;2.42;2.05;;;;;;;;;;4955353;28;20089;-74
2022/08/09 11:14:57;;;;;;;8.07;1.55;;;;;;;;;;4959566;28;20763;-76
2022/08/09 11:17:25;;;;;;;6.23;1.83;;;;;;;;;;4961904;28;20069;-74
2022/08/09 11:20:08;;;;;;;3.13;1.83;;;;;;;;;;4954906;28;20304;-74
2022/08/09 11:22:43;;;;;;;3.50;1.60;;;;;;;;;;4958029;28;20042;-74
2022/08/09 11:25:19;;;;;;;2.65;1.80;;;;;;;;;;4947055;28;20844;-73
2022/08/09 11:27:46;;;;;;;5.05;1.95;;;;;;;;;;4942844;28;20093;-74
2022/08/09 11:30:13;;;;;;;6.40;1.67;;;;;;;;;;4969736;28;20035;-74
2022/08/09 11:33:15;;;;;;;2.38;1.58;;;;;;;;;;4953207;28;20054;-76
2022/08/09 11:35:44;;;;;;;2.25;1.70;;;;;;;;;;4958232;28;20541;-76
2022/08/09 11:38:19;;;;;;;1.80;1.40;;;;;;;;;;4955402;28;20031;-75
2022/08/09 11:40:45;;;;;;;8.02;2.53;;;;;;;;;;4952676;28;20054;-74
2022/08/09 11:43:34;;;;;;;3.67;1.80;;;;;;;;;;4954240;28;20035;-75
2022/08/09 11:46:02;;;;;;;3.53;1.58;;;;;;;;;;4965095;28;20043;-75
2022/08/09 11:48:46;;;;;;;7.15;1.90;;;;;;;;;;4962628;28;20055;-73
2022/08/09 11:51:15;;;;;;;5.05;2.03;;;;;;;;;;4951041;28;20050;-74
2022/08/09 11:53:41;;;;;;;7.13;1.70;;;;;;;;;;4960548;28;20039;-75
2022/08/09 11:58:59;;;;;;;2.65;1.95;;;;;;;;;;4952605;28;20137;-77
2022/08/09 12:01:36;;;;;;;2.00;1.50;;;;;;;;;;4974906;28;20045;-74
2022/08/09 12:04:08;;;;;;;8.20;1.70;;;;;;;;;;4953230;28;20694;-76
2022/08/09 12:06:34;;;;;;;9.55;1.90;;;;;;;;;;4956907;28;20035;-74
2022/08/09 12:09:03;;;;;;;4.80;1.85;;;;;;;;;;4951137;28;20441;-73
2022/08/09 12:11:47;;;;;;;6.57;2.95;;;;;;;;;;4952566;28;20106;-75
2022/08/09 12:14:12;;;;;;;3.45;1.70;;;;;;;;;;4947656;28;20034;-77
2022/08/09 12:16:42;;;;;;;6.38;1.98;;;;;;;;;;4953467;28;20121;-76
2022/08/09 12:19:11;;;;;;;1.73;1.40;;;;;;;;;;4955501;28;20058;-73
2022/08/09 12:21:43;;;;;;;10.25;2.65;;;;;;;;;;4949189;28;20039;-76
2022/08/09 12:24:10;;;;;;;6.20;1.73;;;;;;;;;;4971577;28;20026;-75
2022/08/09 12:27:17;;;;;;;6.95;1.95;;;;;;;;;;4955548;28;20441;-78
2022/08/09 12:29:55;;;;;;;4.63;1.67;;;;;;;;;;4959869;28;20042;-74
2022/08/09 12:32:25;;;;;;;2.97;1.30;;;;;;;;;;4973214;28;20027;-75
2022/08/09 12:34:57;;;;;;;1.75;1.48;;;;;;;;;;4957983;28;20066;-73
2022/08/09 12:37:31;;;;;;;1.65;1.27;;;;;;;;;;4954714;28;20039;-74
2022/08/09 12:40:11;;;;;;;4.45;1.45;;;;;;;;;;4963416;28;20038;-75
2022/08/09 12:42:43;;;;;;;2.60;1.38;;;;;;;;;;4956200;28;20023;-75
2022/08/09 12:45:10;;;;;;;2.38;1.48;;;;;;;;;;4956454;28;20214;-75
2022/08/09 12:47:36;;;;;;;3.80;1.38;;;;;;;;;;4951775;28;20519;-74
2022/08/09 12:50:17;;;;;;;3.90;1.88;;;;;;;;;;4966077;28;20038;-75
2022/08/09 12:52:48;;;;;;;7.40;1.38;;;;;;;;;;4970624;28;20459;-75
2022/08/09 12:55:29;;;;;;;3.50;1.45;;;;;;;;;;4944497;28;20110;-76
2022/08/09 12:57:54;;;;;;;3.53;1.65;;;;;;;;;;4958050;28;20086;-74
2022/08/09 13:00:31;;;;;;;3.17;2.72;;;;;;;;;;4963945;28;20324;-75
2022/08/09 13:03:01;;;;;;;4.22;1.80;;;;;;;;;;4959368;28;20059;-77
2022/08/09 13:05:45;;;;;;;5.00;1.40;;;;;;;;;;4976898;28;20105;-76
2022/08/09 13:08:16;;;;;;;3.67;1.50;;;;;;;;;;4960866;28;20031;-75
2022/08/09 13:10:51;;;;;;;2.28;1.58;;;;;;;;;;4959939;28;20035;-76
2022/08/09 13:13:39;;;;;;;3.80;1.52;;;;;;;;;;4972431;28;20365;-77
2022/08/09 13:16:15;;;;;;;2.63;2.08;;;;;;;;;;4971318;28;20039;-77
2022/08/09 13:18:43;;;;;;;4.32;1.45;;;;;;;;;;4972197;28;20034;-77
2022/08/09 13:21:24;;;;;;;3.90;1.40;;;;;;;;;;4968956;28;20483;-77
2022/08/09 13:24:01;;;;;;;6.43;1.88;;;;;;;;;;4955051;28;20034;-77
2022/08/09 13:26:52;;;;;;;4.53;1.40;;;;;;;;;;4962988;28;20570;-75
2022/08/09 13:29:20;;;;;;;4.50;1.98;;;;;;;;;;4969522;28;20391;-76
2022/08/09 13:31:56;;;;;;;6.57;1.30;;;;;;;;;;4954642;28;20038;-76
2022/08/09 13:34:29;;;;;;;3.08;1.38;;;;;;;;;;4960892;28;20042;-75
2022/08/09 13:36:59;;;;;;;3.05;1.38;;;;;;;;;;4966738;28;20027;-75
2022/08/09 13:39:25;;;;;;;2.80;1.55;;;;;;;;;;4962113;28;20113;-75
2022/08/09 13:41:51;;;;;;;15.15;3.40;;;;;;;;;;4960098;28;20058;-77
2022/08/09 13:44:18;;;;;;;4.53;1.92;;;;;;;;;;4971816;28;20038;-76
2022/08/09 13:46:45;;;;;;;3.42;1.95;;;;;;;;;;4974606;28;20045;-75
2022/08/09 13:49:11;;;;;;;4.20;1.38;;;;;;;;;;4962768;28;20046;-74
2022/08/09 13:51:37;;;;;;;2.60;1.13;;;;;;;;;;4956116;28;20059;-74
2022/08/09 13:54:03;;;;;;;2.30;1.30;;;;;;;;;;4975478;28;20417;-76
2022/08/09 13:56:30;;;;;;;3.33;1.23;;;;;;;;;;4959674;28;20054;-78
2022/08/09 13:58:59;;;;;;;3.10;1.52;;;;;;;;;;4959088;28;20042;-77
2022/08/09 14:01:24;;;;;;;7.50;2.25;;;;;;;;;;4960048;28;20034;-75
2022/08/09 14:03:50;;;;;;;3.75;1.80;;;;;;;;;;4957871;28;20427;-76
2022/08/09 14:06:18;;;;;;;3.80;1.92;;;;;;;;;;4967329;28;20459;-74
2022/08/09 14:08:45;;;;;;;4.00;1.33;;;;;;;;;;4960118;28;20093;-76
2022/08/09 14:11:11;;;;;;;5.45;1.38;;;;;;;;;;4959914;28;20110;-76
2022/08/09 14:13:37;;;;;;;3.38;1.50;;;;;;;;;;4962617;28;20027;-76
2022/08/09 14:16:05;;;;;;;3.08;1.63;;;;;;;;;;4950214;28;20055;-77
2022/08/09 14:18:30;;;;;;;4.13;2.10;;;;;;;;;;4944404;28;20023;-76
2022/08/09 14:20:56;;;;;;;6.15;1.60;;;;;;;;;;4977646;28;20033;-76
2022/08/09 14:23:22;;;;;;;3.13;1.13;;;;;;;;;;4989635;28;20153;-75
2022/08/09 14:25:50;;;;;;;4.07;1.55;;;;;;;;;;4963969;28;20076;-77
2022/08/09 14:28:15;;;;;;;4.03;1.20;;;;;;;;;;4956334;28;20398;-77
2022/08/09 14:30:41;;;;;;;2.97;1.48;;;;;;;;;;4976308;28;20038;-78
2022/08/09 14:33:07;;;;;;;4.20;2.30;;;;;;;;;;4960857;28;20030;-76
2022/08/09 14:35:32;;;;;;;4.13;1.42;;;;;;;;;;4960289;28;20098;-76
2022/08/09 14:37:58;;;;;;;3.80;1.85;;;;;;;;;;4952070;28;20033;-75
2022/08/09 14:40:23;;;;;;;4.80;1.48;;;;;;;;;;4962686;28;20778;-76
2022/08/09 14:42:49;;;;;;;3.92;1.60;;;;;;;;;;4950669;28;20035;-76
2022/08/09 14:45:14;;;;;;;2.03;1.40;;;;;;;;;;4958644;28;20058;-76
2022/08/09 14:47:40;;;;;;;4.32;1.20;;;;;;;;;;4959292;28;20035;-76
2022/08/09 14:50:07;;;;;;;1.67;1.30;;;;;;;;;;4955392;28;20109;-74
2022/08/09 14:52:34;;;;;;;1.58;1.05;;;;;;;;;;4957295;28;20108;-75
2022/08/09 14:54:59;;;;;;;1.10;0.90;;;;;;;;;;4961189;28;20466;-76
2022/08/09 14:57:25;;;;;;;2.42;1.40;;;;;;;;;;4955503;28;20471;-76
2022/08/09 14:59:52;;;;;;;3.10;1.20;;;;;;;;;;4957796;28;20039;-77